UPS220 KFLL-KSDF
Flight info
| Callsign | UPS220 |
|---|---|
| Flight time | N/A |
| Altitude | 40000 |
| Route | FRSBE2 STYMY Q77 WIGVO GLAZR LEDDL1 |
| Aircraft | B742/H-SDFHIRWXY/L |
Departure
| Time | 2026-05-03 22:09 |
|---|---|
| Airport | Fort Lauderdale Hollywood International Airport (KFLL) |
Arrival
| Time | N/A |
|---|---|
| Airport | Louisville Muhammad Ali International Airport (KSDF) |
| Time | Latitude | Longitude | Altitude | Speed | Heading |
|---|---|---|---|---|---|
| 2026-05-03 21:18 | 26.07951 | -80.16388 | 13 ft | 0 kts | 180° |
| 2026-05-03 21:44 | 26.07948 | -80.16388 | 14 ft | 1 kts | 189° |
| 2026-05-03 21:44 | 26.07923 | -80.16405 | 14 ft | 9 kts | 205° |
| 2026-05-03 21:44 | 26.07894 | -80.16412 | 14 ft | 0 kts | 186° |
| 2026-05-03 21:50 | 26.07892 | -80.16412 | 14 ft | 1 kts | 186° |
| 2026-05-03 21:50 | 26.07876 | -80.16413 | 14 ft | 3 kts | 186° |
| 2026-05-03 21:50 | 26.07843 | -80.16421 | 14 ft | 6 kts | 205° |
| 2026-05-03 21:51 | 26.07814 | -80.16467 | 14 ft | 8 kts | 253° |
| 2026-05-03 21:51 | 26.07806 | -80.16538 | 14 ft | 8 kts | 266° |
| 2026-05-03 21:51 | 26.07805 | -80.16563 | 14 ft | 0 kts | 267° |
| 2026-05-03 22:06 | 26.07802 | -80.16587 | 14 ft | 0 kts | 258° |
| 2026-05-03 22:06 | 26.07790 | -80.16615 | 14 ft | 11 kts | 233° |
| 2026-05-03 22:07 | 26.07709 | -80.16630 | 14 ft | 9 kts | 139° |
| 2026-05-03 22:07 | 26.07695 | -80.16542 | 14 ft | 11 kts | 89° |
| 2026-05-03 22:07 | 26.07695 | -80.16531 | 14 ft | 0 kts | 90° |
| 2026-05-03 22:08 | 26.07695 | -80.16528 | 14 ft | 2 kts | 90° |
| 2026-05-03 22:08 | 26.07697 | -80.16306 | 14 ft | 67 kts | 89° |
| 2026-05-03 22:08 | 26.07687 | -80.15459 | 15 ft | 148 kts | 91° |
| 2026-05-03 22:08 | 26.07675 | -80.14156 | 431 ft | 178 kts | 87° |
| 2026-05-03 22:09 | 26.07695 | -80.12767 | 1086 ft | 187 kts | 88° |
| 2026-05-03 22:09 | 26.07772 | -80.11286 | 1863 ft | 200 kts | 82° |
| 2026-05-03 22:09 | 26.08075 | -80.09714 | 2527 ft | 217 kts | 71° |
| 2026-05-03 22:10 | 26.09916 | -80.07111 | 4128 ft | 228 kts | 27° |
| 2026-05-03 22:10 | 26.11336 | -80.06348 | 5037 ft | 230 kts | 22° |
| 2026-05-03 22:10 | 26.12793 | -80.05682 | 5921 ft | 231 kts | 20° |
| 2026-05-03 22:10 | 26.14361 | -80.05057 | 6618 ft | 248 kts | 11° |
| 2026-05-03 22:11 | 26.16122 | -80.05090 | 7296 ft | 267 kts | 348° |
| 2026-05-03 22:11 | 26.17954 | -80.05621 | 8142 ft | 280 kts | 342° |
| 2026-05-03 22:11 | 26.19828 | -80.06299 | 9064 ft | 288 kts | 339° |
| 2026-05-03 22:11 | 26.21542 | -80.07430 | 9952 ft | 293 kts | 315° |
| 2026-05-03 22:12 | 26.22848 | -80.09280 | 9982 ft | 329 kts | 299° |
| 2026-05-03 22:12 | 26.23698 | -80.11674 | 11047 ft | 326 kts | 284° |
| 2026-05-03 22:12 | 26.24015 | -80.13914 | 13280 ft | 282 kts | 272° |
| 2026-05-03 22:12 | 26.23984 | -80.16046 | 13415 ft | 313 kts | 262° |
| 2026-05-03 22:13 | 26.23711 | -80.18613 | 12843 ft | 343 kts | 270° |
| 2026-05-03 22:13 | 26.23986 | -80.21199 | 12429 ft | 328 kts | 278° |
| 2026-05-03 22:13 | 26.24457 | -80.23568 | 12267 ft | 300 kts | 297° |
| 2026-05-03 22:13 | 26.25676 | -80.25442 | 12618 ft | 305 kts | 315° |
| 2026-05-03 22:14 | 26.27375 | -80.26851 | 12865 ft | 307 kts | 328° |
| 2026-05-03 22:14 | 26.29222 | -80.28073 | 12970 ft | 315 kts | 329° |
| 2026-05-03 22:14 | 26.31131 | -80.29346 | 12994 ft | 319 kts | 328° |
| 2026-05-03 22:14 | 26.32925 | -80.30677 | 12992 ft | 300 kts | 320° |
| 2026-05-03 22:15 | 26.34540 | -80.32424 | 13002 ft | 302 kts | 310° |
| 2026-05-03 22:15 | 26.35807 | -80.34263 | 13004 ft | 300 kts | 304° |
| 2026-05-03 22:15 | 26.36967 | -80.36183 | 13005 ft | 300 kts | 303° |
| 2026-05-03 22:15 | 26.38096 | -80.38144 | 13006 ft | 300 kts | 302° |
| 2026-05-03 22:16 | 26.39224 | -80.40131 | 13007 ft | 300 kts | 302° |
| 2026-05-03 22:16 | 26.40332 | -80.42088 | 13008 ft | 300 kts | 302° |
| 2026-05-03 22:16 | 26.41443 | -80.44051 | 13043 ft | 299 kts | 302° |
| 2026-05-03 22:16 | 26.42556 | -80.46021 | 13138 ft | 300 kts | 302° |
| 2026-05-03 22:17 | 26.43667 | -80.47985 | 13319 ft | 297 kts | 302° |
| 2026-05-03 22:17 | 26.44776 | -80.49946 | 14042 ft | 299 kts | 302° |
| 2026-05-03 22:17 | 26.45838 | -80.51821 | 15422 ft | 281 kts | 302° |
| 2026-05-03 22:17 | 26.46869 | -80.53654 | 16095 ft | 291 kts | 302° |
| 2026-05-03 22:18 | 26.48113 | -80.55452 | 16659 ft | 299 kts | 317° |
| 2026-05-03 22:18 | 26.49854 | -80.56755 | 17373 ft | 306 kts | 335° |
| 2026-05-03 22:18 | 26.51885 | -80.57527 | 17907 ft | 316 kts | 343° |
| 2026-05-03 22:18 | 26.54024 | -80.58226 | 18381 ft | 330 kts | 344° |
| 2026-05-03 22:19 | 26.56288 | -80.58944 | 18754 ft | 347 kts | 344° |
| 2026-05-03 22:19 | 26.58670 | -80.59695 | 19131 ft | 363 kts | 344° |
| 2026-05-03 22:19 | 26.61126 | -80.60471 | 19661 ft | 371 kts | 344° |
| 2026-05-03 22:19 | 26.63575 | -80.61248 | 20255 ft | 374 kts | 344° |
| 2026-05-03 22:20 | 26.66099 | -80.62049 | 20830 ft | 377 kts | 344° |
| 2026-05-03 22:20 | 26.68640 | -80.62856 | 21398 ft | 383 kts | 344° |
| 2026-05-03 22:20 | 26.71206 | -80.63672 | 21967 ft | 390 kts | 344° |
| 2026-05-03 22:20 | 26.73826 | -80.64505 | 22539 ft | 397 kts | 344° |
| 2026-05-03 22:21 | 26.76474 | -80.65348 | 23106 ft | 404 kts | 344° |
| 2026-05-03 22:21 | 26.79178 | -80.66222 | 23678 ft | 410 kts | 343° |
| 2026-05-03 22:21 | 26.81923 | -80.67110 | 24249 ft | 416 kts | 344° |
| 2026-05-03 22:21 | 26.84737 | -80.68015 | 24826 ft | 421 kts | 344° |
| 2026-05-03 22:22 | 26.87538 | -80.68913 | 25393 ft | 426 kts | 344° |
| 2026-05-03 22:22 | 26.90414 | -80.69840 | 25935 ft | 433 kts | 343° |
| 2026-05-03 22:22 | 26.93290 | -80.70857 | 26432 ft | 440 kts | 342° |
| 2026-05-03 22:22 | 26.96233 | -80.71960 | 26934 ft | 446 kts | 341° |
| 2026-05-03 22:23 | 26.99161 | -80.73073 | 27428 ft | 449 kts | 341° |
| 2026-05-03 22:23 | 27.02112 | -80.74197 | 27924 ft | 451 kts | 341° |
| 2026-05-03 22:23 | 27.05108 | -80.75337 | 28424 ft | 454 kts | 341° |
| 2026-05-03 22:23 | 27.08075 | -80.76464 | 28916 ft | 458 kts | 341° |
| 2026-05-03 22:24 | 27.11118 | -80.77618 | 29417 ft | 461 kts | 341° |
| 2026-05-03 22:24 | 27.14122 | -80.78758 | 29907 ft | 464 kts | 341° |
| 2026-05-03 22:24 | 27.17157 | -80.79909 | 30495 ft | 464 kts | 341° |
| 2026-05-03 22:24 | 27.20156 | -80.81048 | 31119 ft | 461 kts | 341° |
| 2026-05-03 22:25 | 27.23187 | -80.82199 | 31753 ft | 457 kts | 341° |
| 2026-05-03 22:25 | 27.26155 | -80.83325 | 32381 ft | 452 kts | 341° |
| 2026-05-03 22:25 | 27.29094 | -80.84441 | 33010 ft | 446 kts | 341° |
| 2026-05-03 22:25 | 27.31997 | -80.85555 | 33640 ft | 439 kts | 340° |
| 2026-05-03 22:26 | 27.34820 | -80.86686 | 34177 ft | 434 kts | 340° |
| 2026-05-03 22:26 | 27.37645 | -80.87843 | 34672 ft | 429 kts | 340° |
| 2026-05-03 22:26 | 27.40424 | -80.88989 | 35130 ft | 424 kts | 340° |
| 2026-05-03 22:26 | 27.43157 | -80.90115 | 35559 ft | 419 kts | 340° |
| 2026-05-03 22:27 | 27.45882 | -80.91238 | 35923 ft | 416 kts | 340° |
| 2026-05-03 22:27 | 27.48572 | -80.92346 | 36212 ft | 413 kts | 340° |
| 2026-05-03 22:27 | 27.51274 | -80.93459 | 36458 ft | 412 kts | 340° |
| 2026-05-03 22:27 | 27.53945 | -80.94559 | 36684 ft | 410 kts | 340° |
| 2026-05-03 22:28 | 27.56609 | -80.95656 | 36851 ft | 410 kts | 340° |
| 2026-05-03 22:28 | 27.59293 | -80.96763 | 37022 ft | 409 kts | 340° |
| 2026-05-03 22:28 | 27.61964 | -80.97865 | 37192 ft | 408 kts | 340° |
| 2026-05-03 22:28 | 27.64592 | -80.98949 | 37359 ft | 407 kts | 340° |
| 2026-05-03 22:29 | 27.67248 | -81.00046 | 37528 ft | 405 kts | 340° |
| 2026-05-03 22:29 | 27.69882 | -81.01134 | 37697 ft | 403 kts | 340° |
| 2026-05-03 22:29 | 27.72499 | -81.02216 | 37864 ft | 400 kts | 340° |
| 2026-05-03 22:29 | 27.75103 | -81.03292 | 38005 ft | 397 kts | 340° |
| 2026-05-03 22:30 | 27.77672 | -81.04356 | 38047 ft | 397 kts | 340° |
| 2026-05-03 22:30 | 27.82875 | -81.06510 | 38186 ft | 402 kts | 340° |
| 2026-05-03 22:30 | 27.85507 | -81.07600 | 38361 ft | 403 kts | 340° |
| 2026-05-03 22:31 | 27.88136 | -81.08691 | 38552 ft | 404 kts | 340° |
| 2026-05-03 22:31 | 27.90773 | -81.09784 | 38782 ft | 404 kts | 340° |
| 2026-05-03 22:31 | 27.93419 | -81.10883 | 38969 ft | 405 kts | 340° |
| 2026-05-03 22:31 | 27.96030 | -81.11967 | 39154 ft | 405 kts | 340° |
| 2026-05-03 22:32 | 27.98682 | -81.13068 | 39341 ft | 406 kts | 340° |
| 2026-05-03 22:32 | 28.01335 | -81.14172 | 39528 ft | 406 kts | 340° |
| 2026-05-03 22:32 | 28.03958 | -81.15309 | 39713 ft | 405 kts | 337° |
| 2026-05-03 22:32 | 28.06508 | -81.16563 | 39897 ft | 404 kts | 336° |
| 2026-05-03 22:33 | 28.09081 | -81.17889 | 40033 ft | 405 kts | 335° |
| 2026-05-03 22:33 | 28.14195 | -81.20546 | 40083 ft | 412 kts | 335° |
| 2026-05-03 22:34 | 28.19455 | -81.23264 | 40091 ft | 421 kts | 335° |
| 2026-05-03 22:34 | 28.24832 | -81.26036 | 40094 ft | 432 kts | 335° |
| 2026-05-03 22:35 | 28.30329 | -81.28872 | 40097 ft | 444 kts | 335° |
| 2026-05-03 22:35 | 28.36006 | -81.31792 | 40098 ft | 458 kts | 336° |
| 2026-05-03 22:36 | 28.41887 | -81.34794 | 40094 ft | 474 kts | 336° |
| 2026-05-03 22:36 | 28.48029 | -81.37929 | 40089 ft | 492 kts | 336° |
| 2026-05-03 22:37 | 28.54371 | -81.41172 | 40087 ft | 505 kts | 336° |
| 2026-05-03 22:37 | 28.60718 | -81.44423 | 40088 ft | 506 kts | 336° |
| 2026-05-03 22:38 | 28.67106 | -81.47700 | 40090 ft | 508 kts | 336° |
| 2026-05-03 22:38 | 28.73506 | -81.50987 | 40090 ft | 509 kts | 336° |
| 2026-05-03 22:39 | 28.79948 | -81.54301 | 40089 ft | 508 kts | 336° |
| 2026-05-03 22:39 | 28.86314 | -81.57580 | 40089 ft | 507 kts | 336° |
| 2026-05-03 22:39 | 28.89533 | -81.59211 | 39918 ft | 511 kts | 339° |
| 2026-05-03 22:40 | 28.92963 | -81.60429 | 39540 ft | 511 kts | 347° |
| 2026-05-03 22:40 | 28.96400 | -81.61147 | 39230 ft | 502 kts | 352° |
| 2026-05-03 22:40 | 28.99830 | -81.61594 | 39119 ft | 495 kts | 355° |
| 2026-05-03 22:41 | 29.06635 | -81.62212 | 39090 ft | 491 kts | 356° |
| 2026-05-03 22:41 | 29.13403 | -81.62788 | 39090 ft | 491 kts | 356° |
| 2026-05-03 22:42 | 29.20151 | -81.63388 | 39099 ft | 494 kts | 355° |
| 2026-05-03 22:42 | 29.26976 | -81.64010 | 39109 ft | 496 kts | 355° |
| 2026-05-03 22:43 | 29.33809 | -81.64637 | 39114 ft | 496 kts | 355° |
| 2026-05-03 22:43 | 29.40569 | -81.65266 | 39113 ft | 494 kts | 355° |
| 2026-05-03 22:44 | 29.47407 | -81.65937 | 39113 ft | 494 kts | 355° |
| 2026-05-03 22:44 | 29.54237 | -81.66586 | 39114 ft | 494 kts | 355° |